sensor_id;sensor_type;location;lat;lon;timestamp;temperature;humidity
44671;DHT22;48397;53.016;-2.260;2023-05-20T00:01:42;10.20;99.90
44671;DHT22;48397;53.016;-2.260;2023-05-20T00:04:11;10.10;99.90
44671;DHT22;48397;53.016;-2.260;2023-05-20T00:06:41;10.00;99.90
44671;DHT22;48397;53.016;-2.260;2023-05-20T00:09:09;10.00;99.90
44671;DHT22;48397;53.016;-2.260;2023-05-20T00:11:38;9.90;99.90
44671;DHT22;48397;53.016;-2.260;2023-05-20T00:14:06;9.90;99.90
44671;DHT22;48397;53.016;-2.260;2023-05-20T00:16:35;9.80;99.90
44671;DHT22;48397;53.016;-2.260;2023-05-20T00:19:04;9.80;99.90
44671;DHT22;48397;53.016;-2.260;2023-05-20T00:21:33;9.70;99.90
44671;DHT22;48397;53.016;-2.260;2023-05-20T00:24:01;9.60;99.90
44671;DHT22;48397;53.016;-2.260;2023-05-20T00:26:28;9.60;99.90
44671;DHT22;48397;53.016;-2.260;2023-05-20T00:28:58;9.40;99.90
44671;DHT22;48397;53.016;-2.260;2023-05-20T00:31:26;9.40;99.90
44671;DHT22;48397;53.016;-2.260;2023-05-20T00:33:56;9.40;99.90
44671;DHT22;48397;53.016;-2.260;2023-05-20T00:36:26;9.40;99.90
44671;DHT22;48397;53.016;-2.260;2023-05-20T00:38:56;9.40;99.90
44671;DHT22;48397;53.016;-2.260;2023-05-20T00:41:25;9.40;99.90
44671;DHT22;48397;53.016;-2.260;2023-05-20T00:43:55;9.40;99.90
44671;DHT22;48397;53.016;-2.260;2023-05-20T00:46:26;9.40;99.90
44671;DHT22;48397;53.016;-2.260;2023-05-20T00:48:56;9.30;99.90
44671;DHT22;48397;53.016;-2.260;2023-05-20T00:51:25;9.30;99.90
44671;DHT22;48397;53.016;-2.260;2023-05-20T00:53:55;6.50;99.90
44671;DHT22;48397;53.016;-2.260;2023-05-20T00:56:24;9.20;99.90
44671;DHT22;48397;53.016;-2.260;2023-05-20T00:58:55;9.20;99.90
44671;DHT22;48397;53.016;-2.260;2023-05-20T01:01:24;9.00;99.90
44671;DHT22;48397;53.016;-2.260;2023-05-20T01:03:54;9.00;99.90
44671;DHT22;48397;53.016;-2.260;2023-05-20T01:06:22;8.80;99.90
44671;DHT22;48397;53.016;-2.260;2023-05-20T01:08:50;8.80;99.90
44671;DHT22;48397;53.016;-2.260;2023-05-20T01:11:41;8.70;99.90
44671;DHT22;48397;53.016;-2.260;2023-05-20T01:14:12;8.70;99.90
44671;DHT22;48397;53.016;-2.260;2023-05-20T01:16:44;8.60;99.90
44671;DHT22;48397;53.016;-2.260;2023-05-20T01:22:28;8.50;99.90
44671;DHT22;48397;53.016;-2.260;2023-05-20T01:24:56;8.50;99.90
44671;DHT22;48397;53.016;-2.260;2023-05-20T01:27:25;8.30;99.90
44671;DHT22;48397;53.016;-2.260;2023-05-20T01:29:53;8.40;99.90
44671;DHT22;48397;53.016;-2.260;2023-05-20T01:32:31;8.20;99.90
44671;DHT22;48397;53.016;-2.260;2023-05-20T01:35:00;8.20;99.90
44671;DHT22;48397;53.016;-2.260;2023-05-20T01:37:30;8.10;99.90
44671;DHT22;48397;53.016;-2.260;2023-05-20T01:42:29;8.00;99.90
44671;DHT22;48397;53.016;-2.260;2023-05-20T01:44:59;7.90;99.90
44671;DHT22;48397;53.016;-2.260;2023-05-20T01:47:32;7.90;99.90
44671;DHT22;48397;53.016;-2.260;2023-05-20T01:50:01;7.90;99.90
44671;DHT22;48397;53.016;-2.260;2023-05-20T01:52:30;7.80;99.90
44671;DHT22;48397;53.016;-2.260;2023-05-20T01:54:59;7.80;99.90
44671;DHT22;48397;53.016;-2.260;2023-05-20T01:57:26;7.80;99.90
44671;DHT22;48397;53.016;-2.260;2023-05-20T01:59:54;7.60;99.90
44671;DHT22;48397;53.016;-2.260;2023-05-20T02:02:24;7.60;99.90
44671;DHT22;48397;53.016;-2.260;2023-05-20T02:04:53;7.60;99.90
44671;DHT22;48397;53.016;-2.260;2023-05-20T02:07:24;7.60;99.90
44671;DHT22;48397;53.016;-2.260;2023-05-20T02:09:52;7.60;99.90
44671;DHT22;48397;53.016;-2.260;2023-05-20T02:12:20;7.60;99.90
44671;DHT22;48397;53.016;-2.260;2023-05-20T02:14:48;7.50;99.90
44671;DHT22;48397;53.016;-2.260;2023-05-20T02:17:17;7.50;99.90
44671;DHT22;48397;53.016;-2.260;2023-05-20T02:19:45;7.30;99.90
44671;DHT22;48397;53.016;-2.260;2023-05-20T02:22:13;7.40;99.90
44671;DHT22;48397;53.016;-2.260;2023-05-20T02:24:44;7.30;99.90
44671;DHT22;48397;53.016;-2.260;2023-05-20T02:27:12;7.20;99.90
44671;DHT22;48397;53.016;-2.260;2023-05-20T02:29:42;7.30;99.90
44671;DHT22;48397;53.016;-2.260;2023-05-20T02:32:11;7.20;99.90
44671;DHT22;48397;53.016;-2.260;2023-05-20T02:34:39;7.50;99.90
44671;DHT22;48397;53.016;-2.260;2023-05-20T02:37:07;7.10;99.90
44671;DHT22;48397;53.016;-2.260;2023-05-20T02:39:36;7.10;99.90
44671;DHT22;48397;53.016;-2.260;2023-05-20T02:42:05;7.10;99.90
44671;DHT22;48397;53.016;-2.260;2023-05-20T02:44:33;7.20;99.90
44671;DHT22;48397;53.016;-2.260;2023-05-20T02:47:02;7.40;99.90
44671;DHT22;48397;53.016;-2.260;2023-05-20T02:49:30;7.50;99.90
44671;DHT22;48397;53.016;-2.260;2023-05-20T02:51:57;7.60;99.90
44671;DHT22;48397;53.016;-2.260;2023-05-20T02:54:25;7.70;99.90
44671;DHT22;48397;53.016;-2.260;2023-05-20T02:56:54;7.70;99.90
44671;DHT22;48397;53.016;-2.260;2023-05-20T03:01:52;7.80;99.90
44671;DHT22;48397;53.016;-2.260;2023-05-20T03:04:20;7.90;99.90
44671;DHT22;48397;53.016;-2.260;2023-05-20T03:06:48;7.90;99.90
44671;DHT22;48397;53.016;-2.260;2023-05-20T03:09:18;7.90;99.90
44671;DHT22;48397;53.016;-2.260;2023-05-20T03:11:47;7.80;99.90
44671;DHT22;48397;53.016;-2.260;2023-05-20T03:14:15;7.70;99.90
44671;DHT22;48397;53.016;-2.260;2023-05-20T03:16:43;9.00;99.90
44671;DHT22;48397;53.016;-2.260;2023-05-20T03:19:11;7.80;99.90
44671;DHT22;48397;53.016;-2.260;2023-05-20T03:21:39;7.80;99.90
44671;DHT22;48397;53.016;-2.260;2023-05-20T03:24:10;7.60;99.90
44671;DHT22;48397;53.016;-2.260;2023-05-20T03:26:39;7.50;99.90
44671;DHT22;48397;53.016;-2.260;2023-05-20T03:29:11;7.40;99.90
44671;DHT22;48397;53.016;-2.260;2023-05-20T03:31:42;7.40;99.90
44671;DHT22;48397;53.016;-2.260;2023-05-20T03:34:10;7.20;99.90
44671;DHT22;48397;53.016;-2.260;2023-05-20T03:36:38;7.20;99.90
44671;DHT22;48397;53.016;-2.260;2023-05-20T03:39:06;7.10;99.90
44671;DHT22;48397;53.016;-2.260;2023-05-20T03:41:34;7.10;99.90
44671;DHT22;48397;53.016;-2.260;2023-05-20T03:44:04;7.10;99.90
44671;DHT22;48397;53.016;-2.260;2023-05-20T03:46:32;7.00;99.90
44671;DHT22;48397;53.016;-2.260;2023-05-20T03:49:00;7.00;99.90
44671;DHT22;48397;53.016;-2.260;2023-05-20T03:51:30;7.00;99.90
44671;DHT22;48397;53.016;-2.260;2023-05-20T03:54:04;6.90;99.90
44671;DHT22;48397;53.016;-2.260;2023-05-20T03:56:32;6.90;99.90
44671;DHT22;48397;53.016;-2.260;2023-05-20T03:59:01;6.80;99.90
44671;DHT22;48397;53.016;-2.260;2023-05-20T04:01:30;6.70;99.90
44671;DHT22;48397;53.016;-2.260;2023-05-20T04:03:59;6.60;99.90
44671;DHT22;48397;53.016;-2.260;2023-05-20T04:06:27;6.50;99.90
44671;DHT22;48397;53.016;-2.260;2023-05-20T04:09:00;6.40;99.90
44671;DHT22;48397;53.016;-2.260;2023-05-20T04:14:01;6.50;99.90
44671;DHT22;48397;53.016;-2.260;2023-05-20T04:16:30;6.60;99.90
44671;DHT22;48397;53.016;-2.260;2023-05-20T04:18:58;6.70;99.90
44671;DHT22;48397;53.016;-2.260;2023-05-20T04:21:28;6.70;99.90
44671;DHT22;48397;53.016;-2.260;2023-05-20T04:23:57;6.80;99.90
44671;DHT22;48397;53.016;-2.260;2023-05-20T04:26:25;6.80;99.90
44671;DHT22;48397;53.016;-2.260;2023-05-20T04:28:54;6.80;99.90
44671;DHT22;48397;53.016;-2.260;2023-05-20T04:31:27;6.80;99.90
44671;DHT22;48397;53.016;-2.260;2023-05-20T04:33:57;6.80;99.90
44671;DHT22;48397;53.016;-2.260;2023-05-20T04:36:26;6.80;99.90
44671;DHT22;48397;53.016;-2.260;2023-05-20T04:38:57;6.90;99.90
44671;DHT22;48397;53.016;-2.260;2023-05-20T04:41:25;6.80;99.90
44671;DHT22;48397;53.016;-2.260;2023-05-20T04:43:54;6.80;99.90
44671;DHT22;48397;53.016;-2.260;2023-05-20T04:46:26;6.70;99.90
44671;DHT22;48397;53.016;-2.260;2023-05-20T04:48:55;6.70;99.90
44671;DHT22;48397;53.016;-2.260;2023-05-20T04:51:23;6.70;99.90
44671;DHT22;48397;53.016;-2.260;2023-05-20T04:53:52;6.60;99.90
44671;DHT22;48397;53.016;-2.260;2023-05-20T04:56:20;6.60;99.90
44671;DHT22;48397;53.016;-2.260;2023-05-20T04:58:49;6.60;99.90
44671;DHT22;48397;53.016;-2.260;2023-05-20T05:01:19;6.60;99.90
44671;DHT22;48397;53.016;-2.260;2023-05-20T05:03:48;6.70;99.90
44671;DHT22;48397;53.016;-2.260;2023-05-20T05:06:16;6.70;99.90
44671;DHT22;48397;53.016;-2.260;2023-05-20T05:08:45;6.70;99.90
44671;DHT22;48397;53.016;-2.260;2023-05-20T05:11:13;6.90;99.90
44671;DHT22;48397;53.016;-2.260;2023-05-20T05:13:42;6.90;99.90
44671;DHT22;48397;53.016;-2.260;2023-05-20T05:16:11;7.00;99.90
44671;DHT22;48397;53.016;-2.260;2023-05-20T05:18:39;7.20;99.90
44671;DHT22;48397;53.016;-2.260;2023-05-20T05:21:10;7.20;99.90
44671;DHT22;48397;53.016;-2.260;2023-05-20T05:23:42;7.30;99.90
44671;DHT22;48397;53.016;-2.260;2023-05-20T05:26:11;7.50;99.90
44671;DHT22;48397;53.016;-2.260;2023-05-20T05:28:42;7.50;99.90
44671;DHT22;48397;53.016;-2.260;2023-05-20T05:31:11;7.60;99.90
44671;DHT22;48397;53.016;-2.260;2023-05-20T05:33:40;7.60;99.90
44671;DHT22;48397;53.016;-2.260;2023-05-20T05:36:08;7.70;99.90
44671;DHT22;48397;53.016;-2.260;2023-05-20T05:38:36;7.70;99.90
44671;DHT22;48397;53.016;-2.260;2023-05-20T05:41:04;7.80;99.90
44671;DHT22;48397;53.016;-2.260;2023-05-20T05:43:34;8.00;99.90
44671;DHT22;48397;53.016;-2.260;2023-05-20T05:46:04;8.00;99.90
44671;DHT22;48397;53.016;-2.260;2023-05-20T05:48:33;8.10;99.90
44671;DHT22;48397;53.016;-2.260;2023-05-20T05:53:31;8.20;99.90
44671;DHT22;48397;53.016;-2.260;2023-05-20T05:56:02;8.20;99.90
44671;DHT22;48397;53.016;-2.260;2023-05-20T05:58:30;8.30;99.90
44671;DHT22;48397;53.016;-2.260;2023-05-20T06:01:02;8.50;99.90
44671;DHT22;48397;53.016;-2.260;2023-05-20T06:06:00;8.70;99.90
44671;DHT22;48397;53.016;-2.260;2023-05-20T06:08:29;8.70;99.90
44671;DHT22;48397;53.016;-2.260;2023-05-20T06:10:59;8.80;99.90
44671;DHT22;48397;53.016;-2.260;2023-05-20T06:13:30;8.80;99.90
44671;DHT22;48397;53.016;-2.260;2023-05-20T06:16:00;8.90;99.90
44671;DHT22;48397;53.016;-2.260;2023-05-20T06:18:37;9.10;99.90
44671;DHT22;48397;53.016;-2.260;2023-05-20T06:21:06;9.10;99.90
44671;DHT22;48397;53.016;-2.260;2023-05-20T06:23:34;9.20;99.90
44671;DHT22;48397;53.016;-2.260;2023-05-20T06:26:05;9.20;99.90
44671;DHT22;48397;53.016;-2.260;2023-05-20T06:28:33;9.30;99.90
44671;DHT22;48397;53.016;-2.260;2023-05-20T06:31:02;9.60;99.90
44671;DHT22;48397;53.016;-2.260;2023-05-20T06:33:33;9.70;99.90
44671;DHT22;48397;53.016;-2.260;2023-05-20T06:36:06;9.80;99.90
44671;DHT22;48397;53.016;-2.260;2023-05-20T06:38:37;7.70;99.90
44671;DHT22;48397;53.016;-2.260;2023-05-20T06:41:05;9.90;99.90
44671;DHT22;48397;53.016;-2.260;2023-05-20T06:43:33;10.00;99.90
44671;DHT22;48397;53.016;-2.260;2023-05-20T06:46:09;10.10;99.90
44671;DHT22;48397;53.016;-2.260;2023-05-20T06:48:57;10.20;99.90
44671;DHT22;48397;53.016;-2.260;2023-05-20T06:51:26;10.20;99.90
44671;DHT22;48397;53.016;-2.260;2023-05-20T06:53:55;10.30;99.90
44671;DHT22;48397;53.016;-2.260;2023-05-20T06:56:23;10.40;99.90
44671;DHT22;48397;53.016;-2.260;2023-05-20T06:58:51;10.50;99.90
44671;DHT22;48397;53.016;-2.260;2023-05-20T07:01:19;10.70;99.90
44671;DHT22;48397;53.016;-2.260;2023-05-20T07:03:46;10.70;99.90
44671;DHT22;48397;53.016;-2.260;2023-05-20T07:06:18;10.70;99.90
44671;DHT22;48397;53.016;-2.260;2023-05-20T07:08:47;10.80;99.90
44671;DHT22;48397;53.016;-2.260;2023-05-20T07:11:16;11.00;99.90
44671;DHT22;48397;53.016;-2.260;2023-05-20T07:13:44;11.00;99.90
44671;DHT22;48397;53.016;-2.260;2023-05-20T07:16:12;11.10;99.90
44671;DHT22;48397;53.016;-2.260;2023-05-20T07:18:44;11.10;99.90
44671;DHT22;48397;53.016;-2.260;2023-05-20T07:21:14;11.20;99.90
44671;DHT22;48397;53.016;-2.260;2023-05-20T07:24:12;11.40;99.90
44671;DHT22;48397;53.016;-2.260;2023-05-20T07:26:40;11.60;99.90
44671;DHT22;48397;53.016;-2.260;2023-05-20T07:29:07;11.60;99.90
44671;DHT22;48397;53.016;-2.260;2023-05-20T07:31:39;11.70;99.90
44671;DHT22;48397;53.016;-2.260;2023-05-20T07:34:07;11.70;99.90
44671;DHT22;48397;53.016;-2.260;2023-05-20T07:36:34;11.70;99.90
44671;DHT22;48397;53.016;-2.260;2023-05-20T07:39:07;11.80;99.90
44671;DHT22;48397;53.016;-2.260;2023-05-20T07:41:41;11.80;99.90
44671;DHT22;48397;53.016;-2.260;2023-05-20T07:44:10;12.10;99.90
44671;DHT22;48397;53.016;-2.260;2023-05-20T07:46:42;12.00;99.90
44671;DHT22;48397;53.016;-2.260;2023-05-20T07:49:10;12.20;99.90
44671;DHT22;48397;53.016;-2.260;2023-05-20T07:51:39;12.30;99.90
44671;DHT22;48397;53.016;-2.260;2023-05-20T07:54:07;12.40;99.90
44671;DHT22;48397;53.016;-2.260;2023-05-20T07:56:36;12.60;99.90
44671;DHT22;48397;53.016;-2.260;2023-05-20T07:59:05;12.70;99.90
44671;DHT22;48397;53.016;-2.260;2023-05-20T08:01:40;12.80;99.90
44671;DHT22;48397;53.016;-2.260;2023-05-20T08:04:11;12.80;99.90
44671;DHT22;48397;53.016;-2.260;2023-05-20T08:06:39;12.90;99.90
44671;DHT22;48397;53.016;-2.260;2023-05-20T08:09:11;13.00;99.90
44671;DHT22;48397;53.016;-2.260;2023-05-20T08:11:45;13.20;99.90
44671;DHT22;48397;53.016;-2.260;2023-05-20T08:14:15;13.20;99.90
44671;DHT22;48397;53.016;-2.260;2023-05-20T08:16:47;13.40;99.90
44671;DHT22;48397;53.016;-2.260;2023-05-20T08:19:15;13.50;99.90
44671;DHT22;48397;53.016;-2.260;2023-05-20T08:21:47;13.50;99.90
44671;DHT22;48397;53.016;-2.260;2023-05-20T08:24:16;13.60;99.90
44671;DHT22;48397;53.016;-2.260;2023-05-20T08:26:44;13.60;99.90
44671;DHT22;48397;53.016;-2.260;2023-05-20T08:29:13;13.70;99.90
44671;DHT22;48397;53.016;-2.260;2023-05-20T08:31:41;13.80;99.90
44671;DHT22;48397;53.016;-2.260;2023-05-20T08:34:09;13.80;99.90
44671;DHT22;48397;53.016;-2.260;2023-05-20T08:36:37;14.00;99.90
44671;DHT22;48397;53.016;-2.260;2023-05-20T08:39:06;14.00;99.90
44671;DHT22;48397;53.016;-2.260;2023-05-20T08:41:34;14.30;99.90
44671;DHT22;48397;53.016;-2.260;2023-05-20T08:44:03;14.30;99.90
44671;DHT22;48397;53.016;-2.260;2023-05-20T08:46:33;14.50;99.90
44671;DHT22;48397;53.016;-2.260;2023-05-20T08:49:01;14.50;99.90
44671;DHT22;48397;53.016;-2.260;2023-05-20T08:51:32;14.70;99.90
44671;DHT22;48397;53.016;-2.260;2023-05-20T08:54:04;14.70;99.90
44671;DHT22;48397;53.016;-2.260;2023-05-20T08:56:33;15.00;99.90
44671;DHT22;48397;53.016;-2.260;2023-05-20T08:59:03;15.20;99.90
44671;DHT22;48397;53.016;-2.260;2023-05-20T09:01:32;15.20;99.90
44671;DHT22;48397;53.016;-2.260;2023-05-20T09:04:02;15.30;99.90
44671;DHT22;48397;53.016;-2.260;2023-05-20T09:06:41;15.30;99.90
44671;DHT22;48397;53.016;-2.260;2023-05-20T09:09:11;15.30;99.90
44671;DHT22;48397;53.016;-2.260;2023-05-20T09:11:40;15.40;99.90
44671;DHT22;48397;53.016;-2.260;2023-05-20T09:14:10;15.50;99.90
44671;DHT22;48397;53.016;-2.260;2023-05-20T09:16:39;15.60;99.90
44671;DHT22;48397;53.016;-2.260;2023-05-20T09:19:08;15.70;99.90
44671;DHT22;48397;53.016;-2.260;2023-05-20T09:21:36;15.70;99.90
44671;DHT22;48397;53.016;-2.260;2023-05-20T09:24:05;15.80;99.90
44671;DHT22;48397;53.016;-2.260;2023-05-20T09:26:33;16.00;99.90
44671;DHT22;48397;53.016;-2.260;2023-05-20T09:29:01;16.10;99.90
44671;DHT22;48397;53.016;-2.260;2023-05-20T09:31:29;16.10;99.90
44671;DHT22;48397;53.016;-2.260;2023-05-20T09:33:57;16.20;99.90
44671;DHT22;48397;53.016;-2.260;2023-05-20T09:36:28;16.30;99.90
44671;DHT22;48397;53.016;-2.260;2023-05-20T09:39:08;16.50;99.90
44671;DHT22;48397;53.016;-2.260;2023-05-20T09:41:51;16.60;99.90
44671;DHT22;48397;53.016;-2.260;2023-05-20T09:44:21;16.60;99.90
44671;DHT22;48397;53.016;-2.260;2023-05-20T09:46:50;16.60;99.90
44671;DHT22;48397;53.016;-2.260;2023-05-20T09:49:21;16.70;99.90
44671;DHT22;48397;53.016;-2.260;2023-05-20T09:51:52;16.60;99.90
44671;DHT22;48397;53.016;-2.260;2023-05-20T09:54:26;16.60;99.90
44671;DHT22;48397;53.016;-2.260;2023-05-20T09:56:57;16.60;99.90
44671;DHT22;48397;53.016;-2.260;2023-05-20T09:59:30;16.50;99.90
44671;DHT22;48397;53.016;-2.260;2023-05-20T10:01:59;16.40;99.90
44671;DHT22;48397;53.016;-2.260;2023-05-20T10:04:27;16.60;99.90
44671;DHT22;48397;53.016;-2.260;2023-05-20T10:07:26;16.80;99.90
44671;DHT22;48397;53.016;-2.260;2023-05-20T10:20:45;17.20;99.90
44671;DHT22;48397;53.016;-2.260;2023-05-20T10:23:22;17.30;99.90
44671;DHT22;48397;53.016;-2.260;2023-05-20T10:25:51;17.40;99.90
44671;DHT22;48397;53.016;-2.260;2023-05-20T10:28:39;17.50;99.90
44671;DHT22;48397;53.016;-2.260;2023-05-20T10:31:19;17.60;99.90
44671;DHT22;48397;53.016;-2.260;2023-05-20T10:33:50;17.70;99.90
44671;DHT22;48397;53.016;-2.260;2023-05-20T10:36:28;17.60;99.90
44671;DHT22;48397;53.016;-2.260;2023-05-20T10:38:59;16.60;99.90
44671;DHT22;48397;53.016;-2.260;2023-05-20T10:41:29;17.60;99.90
44671;DHT22;48397;53.016;-2.260;2023-05-20T10:44:04;17.50;99.90
44671;DHT22;48397;53.016;-2.260;2023-05-20T10:46:34;17.60;99.90
44671;DHT22;48397;53.016;-2.260;2023-05-20T10:49:23;17.60;99.90
44671;DHT22;48397;53.016;-2.260;2023-05-20T10:51:54;17.80;99.90
44671;DHT22;48397;53.016;-2.260;2023-05-20T10:54:22;17.80;99.90
44671;DHT22;48397;53.016;-2.260;2023-05-20T10:56:51;18.00;99.90
44671;DHT22;48397;53.016;-2.260;2023-05-20T10:59:20;18.10;99.90
44671;DHT22;48397;53.016;-2.260;2023-05-20T11:01:49;18.10;99.90
44671;DHT22;48397;53.016;-2.260;2023-05-20T11:04:18;18.10;99.90
44671;DHT22;48397;53.016;-2.260;2023-05-20T11:06:52;18.10;99.90
44671;DHT22;48397;53.016;-2.260;2023-05-20T11:09:22;18.20;99.90
44671;DHT22;48397;53.016;-2.260;2023-05-20T11:11:52;18.30;99.90
44671;DHT22;48397;53.016;-2.260;2023-05-20T11:14:20;18.50;99.90
44671;DHT22;48397;53.016;-2.260;2023-05-20T11:16:51;18.50;99.90
44671;DHT22;48397;53.016;-2.260;2023-05-20T11:19:20;18.50;99.90
44671;DHT22;48397;53.016;-2.260;2023-05-20T11:21:48;18.50;99.90
44671;DHT22;48397;53.016;-2.260;2023-05-20T11:24:23;18.40;99.90
44671;DHT22;48397;53.016;-2.260;2023-05-20T11:26:54;18.70;99.90
44671;DHT22;48397;53.016;-2.260;2023-05-20T11:29:22;18.70;99.90
44671;DHT22;48397;53.016;-2.260;2023-05-20T11:31:59;18.60;99.90
44671;DHT22;48397;53.016;-2.260;2023-05-20T11:34:35;18.60;99.90
44671;DHT22;48397;53.016;-2.260;2023-05-20T11:37:08;18.70;99.90
44671;DHT22;48397;53.016;-2.260;2023-05-20T11:39:38;19.00;98.70
44671;DHT22;48397;53.016;-2.260;2023-05-20T11:42:07;19.00;99.00
44671;DHT22;48397;53.016;-2.260;2023-05-20T11:44:35;19.00;99.20
44671;DHT22;48397;53.016;-2.260;2023-05-20T11:47:05;19.20;98.10
44671;DHT22;48397;53.016;-2.260;2023-05-20T11:49:38;19.40;97.50
44671;DHT22;48397;53.016;-2.260;2023-05-20T11:52:08;19.50;97.00
44671;DHT22;48397;53.016;-2.260;2023-05-20T11:54:37;19.70;97.40
44671;DHT22;48397;53.016;-2.260;2023-05-20T11:57:05;19.80;97.50
44671;DHT22;48397;53.016;-2.260;2023-05-20T11:59:33;19.90;97.70
44671;DHT22;48397;53.016;-2.260;2023-05-20T12:02:03;19.90;98.80
44671;DHT22;48397;53.016;-2.260;2023-05-20T12:04:33;20.20;98.30
44671;DHT22;48397;53.016;-2.260;2023-05-20T12:07:01;20.60;98.60
44671;DHT22;48397;53.016;-2.260;2023-05-20T12:09:31;20.80;98.90
44671;DHT22;48397;53.016;-2.260;2023-05-20T12:12:02;21.20;99.00
44671;DHT22;48397;53.016;-2.260;2023-05-20T12:14:34;21.60;94.10
44671;DHT22;48397;53.016;-2.260;2023-05-20T12:17:03;21.60;94.60
44671;DHT22;48397;53.016;-2.260;2023-05-20T12:19:31;21.60;95.50
44671;DHT22;48397;53.016;-2.260;2023-05-20T12:22:02;21.80;94.70
44671;DHT22;48397;53.016;-2.260;2023-05-20T12:25:01;21.80;90.80
44671;DHT22;48397;53.016;-2.260;2023-05-20T12:27:32;21.40;93.10
44671;DHT22;48397;53.016;-2.260;2023-05-20T12:30:01;21.50;95.00
44671;DHT22;48397;53.016;-2.260;2023-05-20T12:32:31;21.70;91.60
44671;DHT22;48397;53.016;-2.260;2023-05-20T12:35:08;21.70;92.00
44671;DHT22;48397;53.016;-2.260;2023-05-20T12:37:38;21.80;90.70
44671;DHT22;48397;53.016;-2.260;2023-05-20T12:40:10;21.80;91.00
44671;DHT22;48397;53.016;-2.260;2023-05-20T12:42:43;21.70;91.00
44671;DHT22;48397;53.016;-2.260;2023-05-20T12:45:12;21.50;91.00
44671;DHT22;48397;53.016;-2.260;2023-05-20T12:47:40;21.30;91.00
44671;DHT22;48397;53.016;-2.260;2023-05-20T12:50:08;21.20;93.00
44671;DHT22;48397;53.016;-2.260;2023-05-20T12:52:40;21.30;94.20
44671;DHT22;48397;53.016;-2.260;2023-05-20T12:55:09;21.60;94.70
44671;DHT22;48397;53.016;-2.260;2023-05-20T12:57:43;22.00;94.00
44671;DHT22;48397;53.016;-2.260;2023-05-20T13:00:12;22.40;94.80
44671;DHT22;48397;53.016;-2.260;2023-05-20T13:02:41;22.90;94.70
44671;DHT22;48397;53.016;-2.260;2023-05-20T13:05:10;23.30;93.40
44671;DHT22;48397;53.016;-2.260;2023-05-20T13:07:38;23.60;91.20
44671;DHT22;48397;53.016;-2.260;2023-05-20T13:10:06;23.80;90.00
44671;DHT22;48397;53.016;-2.260;2023-05-20T13:12:35;23.50;90.80
44671;DHT22;48397;53.016;-2.260;2023-05-20T13:15:03;23.50;91.20
44671;DHT22;48397;53.016;-2.260;2023-05-20T13:17:32;23.60;91.90
44671;DHT22;48397;53.016;-2.260;2023-05-20T13:20:01;23.90;91.70
44671;DHT22;48397;53.016;-2.260;2023-05-20T13:22:29;24.20;90.50
44671;DHT22;48397;53.016;-2.260;2023-05-20T13:24:56;24.40;90.70
44671;DHT22;48397;53.016;-2.260;2023-05-20T13:27:25;24.60;90.30
44671;DHT22;48397;53.016;-2.260;2023-05-20T13:29:53;24.80;90.20
44671;DHT22;48397;53.016;-2.260;2023-05-20T13:32:21;25.20;88.40
44671;DHT22;48397;53.016;-2.260;2023-05-20T13:34:49;25.40;87.90
44671;DHT22;48397;53.016;-2.260;2023-05-20T13:37:18;25.40;86.60
44671;DHT22;48397;53.016;-2.260;2023-05-20T13:39:46;25.40;85.50
44671;DHT22;48397;53.016;-2.260;2023-05-20T13:42:14;25.40;85.80
44671;DHT22;48397;53.016;-2.260;2023-05-20T13:44:42;25.40;86.00
44671;DHT22;48397;53.016;-2.260;2023-05-20T13:47:10;26.00;83.50
44671;DHT22;48397;53.016;-2.260;2023-05-20T13:52:07;26.20;82.00
44671;DHT22;48397;53.016;-2.260;2023-05-20T13:54:35;26.00;79.40
44671;DHT22;48397;53.016;-2.260;2023-05-20T13:57:03;25.50;79.10
44671;DHT22;48397;53.016;-2.260;2023-05-20T14:02:02;24.80;80.30
44671;DHT22;48397;53.016;-2.260;2023-05-20T14:04:30;24.90;80.60
44671;DHT22;48397;53.016;-2.260;2023-05-20T14:07:06;25.30;79.10
44671;DHT22;48397;53.016;-2.260;2023-05-20T14:09:36;25.60;79.70
44671;DHT22;48397;53.016;-2.260;2023-05-20T14:12:05;25.80;79.10
44671;DHT22;48397;53.016;-2.260;2023-05-20T14:14:34;26.00;78.30
44671;DHT22;48397;53.016;-2.260;2023-05-20T14:17:03;26.20;80.10
44671;DHT22;48397;53.016;-2.260;2023-05-20T14:19:31;26.10;80.40
44671;DHT22;48397;53.016;-2.260;2023-05-20T14:21:59;26.50;80.60
44671;DHT22;48397;53.016;-2.260;2023-05-20T14:24:28;26.90;78.90
44671;DHT22;48397;53.016;-2.260;2023-05-20T14:26:56;27.00;75.50
44671;DHT22;48397;53.016;-2.260;2023-05-20T14:29:24;27.10;74.20
44671;DHT22;48397;53.016;-2.260;2023-05-20T14:31:53;27.10;75.80
44671;DHT22;48397;53.016;-2.260;2023-05-20T14:34:27;30.10;77.30
44671;DHT22;48397;53.016;-2.260;2023-05-20T14:36:55;25.40;74.20
44671;DHT22;48397;53.016;-2.260;2023-05-20T14:39:24;27.30;75.10
44671;DHT22;48397;53.016;-2.260;2023-05-20T14:41:54;27.50;74.70
44671;DHT22;48397;53.016;-2.260;2023-05-20T14:44:23;27.70;75.00
44671;DHT22;48397;53.016;-2.260;2023-05-20T14:46:51;27.80;72.10
44671;DHT22;48397;53.016;-2.260;2023-05-20T14:49:19;27.50;73.10
44671;DHT22;48397;53.016;-2.260;2023-05-20T14:51:47;27.40;73.60
44671;DHT22;48397;53.016;-2.260;2023-05-20T14:54:16;26.10;71.50
44671;DHT22;48397;53.016;-2.260;2023-05-20T14:56:45;24.20;70.80
44671;DHT22;48397;53.016;-2.260;2023-05-20T14:59:17;26.00;73.10
44671;DHT22;48397;53.016;-2.260;2023-05-20T15:01:45;26.40;74.40
44671;DHT22;48397;53.016;-2.260;2023-05-20T15:04:13;26.50;72.60
44671;DHT22;48397;53.016;-2.260;2023-05-20T15:06:42;26.70;73.70
44671;DHT22;48397;53.016;-2.260;2023-05-20T15:09:11;25.40;73.10
44671;DHT22;48397;53.016;-2.260;2023-05-20T15:11:39;26.70;71.00
44671;DHT22;48397;53.016;-2.260;2023-05-20T15:14:11;26.70;71.50
44671;DHT22;48397;53.016;-2.260;2023-05-20T15:16:40;25.20;71.80
44671;DHT22;48397;53.016;-2.260;2023-05-20T15:19:09;25.30;73.10
44671;DHT22;48397;53.016;-2.260;2023-05-20T15:21:37;25.70;71.90
44671;DHT22;48397;53.016;-2.260;2023-05-20T15:24:05;25.80;72.30
44671;DHT22;48397;53.016;-2.260;2023-05-20T15:26:33;26.30;71.80
44671;DHT22;48397;53.016;-2.260;2023-05-20T15:29:02;27.50;71.20
44671;DHT22;48397;53.016;-2.260;2023-05-20T15:31:30;27.60;72.10
44671;DHT22;48397;53.016;-2.260;2023-05-20T15:36:30;28.00;69.50
44671;DHT22;48397;53.016;-2.260;2023-05-20T15:38:59;27.30;68.90
44671;DHT22;48397;53.016;-2.260;2023-05-20T15:41:29;26.70;69.20
44671;DHT22;48397;53.016;-2.260;2023-05-20T15:43:58;26.70;70.20
44671;DHT22;48397;53.016;-2.260;2023-05-20T15:46:26;26.70;71.20
44671;DHT22;48397;53.016;-2.260;2023-05-20T15:48:55;27.50;70.80
44671;DHT22;48397;53.016;-2.260;2023-05-20T15:51:26;27.60;67.60
44671;DHT22;48397;53.016;-2.260;2023-05-20T15:53:55;26.90;67.00
44671;DHT22;48397;53.016;-2.260;2023-05-20T15:56:23;26.30;66.90
44671;DHT22;48397;53.016;-2.260;2023-05-20T15:58:54;26.30;68.90
44671;DHT22;48397;53.016;-2.260;2023-05-20T16:03:54;27.10;67.50
44671;DHT22;48397;53.016;-2.260;2023-05-20T16:06:25;27.30;68.60
44671;DHT22;48397;53.016;-2.260;2023-05-20T16:08:53;27.40;69.00
44671;DHT22;48397;53.016;-2.260;2023-05-20T16:11:22;27.90;67.90
44671;DHT22;48397;53.016;-2.260;2023-05-20T16:13:50;27.90;68.30
44671;DHT22;48397;53.016;-2.260;2023-05-20T16:16:18;27.40;67.30